Time;durP1;ratioP1;P1;durP2;ratioP2;P2;SDS_P1;SDS_P2;PMS_P1;PMS_P2;Temp;Humidity;BMP_temperature;BMP_pressure;BME280_temperature;BME280_humidity;BME280_pressure;Samples;Min_cycle;Max_cycle;Signal;HPM_P1;HPM_P2
2021/12/23 00:00:20;;;;;;;30.58;16.90;;;-4.60;99.90;;;;;;5092677;28;20498;-91
2021/12/23 00:02:47;;;;;;;33.55;16.83;;;-4.60;99.90;;;;;;5092269;28;20221;-91
2021/12/23 00:05:14;;;;;;;34.22;17.88;;;-4.50;99.90;;;;;;5091605;28;20257;-92
2021/12/23 00:07:44;;;;;;;31.45;17.77;;;-4.50;99.90;;;;;;5089074;28;20203;-92
2021/12/23 00:10:11;;;;;;;31.83;17.30;;;-4.50;99.90;;;;;;5087597;28;20233;-93
2021/12/23 00:12:42;;;;;;;35.00;17.65;;;-4.50;99.90;;;;;;5081886;28;20266;-92
2021/12/23 00:15:23;;;;;;;34.15;18.42;;;-4.50;99.90;;;;;;5083501;28;20287;-92
2021/12/23 00:18:00;;;;;;;38.92;19.10;;;-4.50;99.90;;;;;;5079197;28;20207;-92
2021/12/23 00:23:25;;;;;;;34.10;16.80;;;-4.50;99.90;;;;;;5080964;28;20210;-92
2021/12/23 00:25:56;;;;;;;33.25;17.48;;;-4.50;99.90;;;;;;5084582;28;20228;-92
2021/12/23 00:28:25;;;;;;;35.20;18.55;;;-4.50;99.90;;;;;;5081688;28;20185;-93
2021/12/23 00:30:55;;;;;;;34.05;18.73;;;-4.50;99.90;;;;;;5082706;28;20307;-93
2021/12/23 00:33:23;;;;;;;34.17;18.50;;;-4.40;99.90;;;;;;5082120;28;20201;-92
2021/12/23 00:35:52;;;;;;;34.10;18.02;;;-4.40;99.90;;;;;;5079772;28;20231;-92
2021/12/23 00:38:27;;;;;;;32.30;17.98;;;-4.40;99.90;;;;;;5080114;28;20233;-92
2021/12/23 00:40:55;;;;;;;33.60;17.05;;;-4.40;99.90;;;;;;5086127;28;20211;-93
2021/12/23 00:43:22;;;;;;;39.10;18.02;;;-4.40;99.90;;;;;;5089884;28;20224;-91
2021/12/23 00:45:50;;;;;;;37.38;18.45;;;-4.30;99.90;;;;;;5089360;28;20264;-92
2021/12/23 00:48:18;;;;;;;37.55;19.27;;;-4.40;99.90;;;;;;5089328;28;20214;-92
2021/12/23 00:50:48;;;;;;;30.20;16.35;;;-4.40;99.90;;;;;;5089085;28;20231;-91
2021/12/23 00:53:18;;;;;;;36.58;18.00;;;-4.50;99.90;;;;;;5100831;28;20207;-91
2021/12/23 00:55:47;;;;;;;39.05;19.48;;;-4.50;99.90;;;;;;5100690;28;20195;-92
2021/12/23 00:58:26;;;;;;;34.60;17.75;;;-4.50;99.90;;;;;;5093742;28;20226;-94
2021/12/23 01:00:55;;;;;;;31.88;16.95;;;-4.50;99.90;;;;;;5083669;28;20206;-93
2021/12/23 01:03:22;;;;;;;35.67;17.48;;;-4.40;99.90;;;;;;5084188;28;20216;-94
2021/12/23 01:05:49;;;;;;;35.10;19.20;;;-4.40;99.90;;;;;;5082577;28;20247;-93
2021/12/23 01:08:19;;;;;;;39.60;18.80;;;-4.40;99.90;;;;;;5082690;28;20211;-93
2021/12/23 01:10:46;;;;;;;28.02;17.60;;;-4.40;99.90;;;;;;5080270;28;20251;-92
2021/12/23 01:13:17;;;;;;;33.00;17.55;;;-4.40;99.90;;;;;;5081919;28;20201;-92
2021/12/23 01:16:06;;;;;;;34.63;17.60;;;-4.50;99.90;;;;;;5080935;28;20200;-92
2021/12/23 01:18:43;;;;;;;28.75;17.73;;;-4.50;99.90;;;;;;5082477;28;20209;-94
2021/12/23 01:21:17;;;;;;;34.45;18.17;;;-4.40;99.90;;;;;;5082394;28;20204;-92
2021/12/23 01:23:48;;;;;;;34.35;17.63;;;-4.40;99.90;;;;;;5080242;28;20224;-93
2021/12/23 01:26:19;;;;;;;39.97;17.92;;;-4.40;99.90;;;;;;5081933;28;20235;-92
2021/12/23 01:28:49;;;;;;;29.75;17.00;;;-4.40;99.90;;;;;;5081392;28;20225;-92
2021/12/23 01:31:16;;;;;;;32.15;18.77;;;-4.40;99.90;;;;;;5082177;28;20200;-93
2021/12/23 01:33:44;;;;;;;38.20;18.80;;;-4.40;99.90;;;;;;5081130;28;20208;-92
2021/12/23 01:36:11;;;;;;;34.55;18.10;;;-4.40;99.90;;;;;;5086502;28;20669;-92
2021/12/23 01:38:39;;;;;;;30.35;15.20;;;-4.40;99.90;;;;;;5084926;28;20229;-92
2021/12/23 01:41:06;;;;;;;33.40;18.60;;;-4.40;99.90;;;;;;5085775;28;20201;-92
2021/12/23 01:43:33;;;;;;;33.75;16.23;;;-4.40;99.90;;;;;;5088135;28;20243;-92
2021/12/23 01:46:01;;;;;;;30.92;16.30;;;-4.40;99.90;;;;;;5086972;28;20203;-92
2021/12/23 01:48:28;;;;;;;36.45;18.02;;;-4.30;99.90;;;;;;5081126;28;20212;-92
2021/12/23 01:50:57;;;;;;;28.85;16.13;;;-4.30;99.90;;;;;;5083512;28;20234;-92
2021/12/23 01:53:24;;;;;;;31.30;17.25;;;-4.40;99.90;;;;;;5083015;28;20207;-92
2021/12/23 01:55:51;;;;;;;36.47;16.85;;;-4.30;99.90;;;;;;5081329;28;20223;-92
2021/12/23 01:58:18;;;;;;;35.20;17.08;;;-4.40;99.90;;;;;;5078928;28;20547;-93
2021/12/23 02:00:50;;;;;;;29.58;16.52;;;-4.30;99.90;;;;;;5078326;28;20204;-92
2021/12/23 02:03:18;;;;;;;29.85;17.92;;;-4.30;99.90;;;;;;5078359;28;20289;-92
2021/12/23 02:05:45;;;;;;;30.77;16.55;;;-4.30;99.90;;;;;;5079461;28;20226;-93
2021/12/23 02:08:14;;;;;;;30.77;16.92;;;-4.30;99.90;;;;;;5082646;28;20549;-92
2021/12/23 02:10:42;;;;;;;34.67;16.88;;;-4.30;99.90;;;;;;5090791;28;20260;-95
2021/12/23 02:13:09;;;;;;;30.05;17.00;;;-4.30;99.90;;;;;;5094735;28;20222;-92
2021/12/23 02:15:36;;;;;;;35.10;18.10;;;-4.30;99.90;;;;;;5096898;28;20201;-92
2021/12/23 02:18:03;;;;;;;28.45;16.70;;;-4.30;99.90;;;;;;5099513;28;20180;-94
2021/12/23 02:20:33;;;;;;;35.97;17.65;;;-4.30;99.90;;;;;;5097703;28;20657;-93
2021/12/23 02:23:00;;;;;;;31.40;15.85;;;-4.30;99.90;;;;;;5093060;28;20371;-92
2021/12/23 02:25:29;;;;;;;35.55;17.45;;;-4.30;99.90;;;;;;5088460;28;20192;-94
2021/12/23 02:27:57;;;;;;;32.63;17.90;;;-4.40;99.90;;;;;;5085710;28;20220;-92
2021/12/23 02:30:26;;;;;;;28.17;16.55;;;-4.40;99.90;;;;;;5085399;28;20232;-93
2021/12/23 02:32:54;;;;;;;33.47;18.30;;;-4.40;99.90;;;;;;5085769;28;20205;-92
2021/12/23 02:35:24;;;;;;;29.92;17.67;;;-4.40;99.90;;;;;;5086333;28;20196;-93
2021/12/23 02:37:53;;;;;;;29.27;16.08;;;-4.40;99.90;;;;;;5088354;28;20226;-92
2021/12/23 02:40:27;;;;;;;28.75;17.33;;;-4.40;99.90;;;;;;5081911;28;20227;-93
2021/12/23 02:42:55;;;;;;;27.33;15.13;;;-4.50;99.90;;;;;;5079873;28;20231;-92
2021/12/23 02:45:22;;;;;;;33.38;17.55;;;-4.40;99.90;;;;;;5081180;28;20222;-94
2021/12/23 02:47:49;;;;;;;35.85;16.00;;;-4.40;99.90;;;;;;5081889;28;20208;-93
2021/12/23 02:50:16;;;;;;;31.25;16.13;;;-4.40;99.90;;;;;;5081314;28;20228;-93
2021/12/23 02:52:43;;;;;;;27.88;16.42;;;-4.50;99.90;;;;;;5081007;28;20204;-92
2021/12/23 02:55:11;;;;;;;30.95;16.38;;;-4.40;99.90;;;;;;5080030;28;20208;-92
2021/12/23 02:57:38;;;;;;;31.85;17.35;;;-4.40;99.90;;;;;;5079237;28;20662;-93
2021/12/23 03:00:07;;;;;;;26.80;15.25;;;-4.40;99.90;;;;;;5079745;28;20220;-92
2021/12/23 03:02:34;;;;;;;32.80;16.75;;;-4.40;99.90;;;;;;5079047;28;20205;-92
2021/12/23 03:05:00;;;;;;;28.88;15.10;;;-4.30;99.90;;;;;;5080905;28;20208;-92
2021/12/23 03:07:27;;;;;;;28.42;16.38;;;-4.20;99.90;;;;;;5078055;28;20197;-92
2021/12/23 03:09:54;;;;;;;31.38;16.05;;;-4.30;99.90;;;;;;5078488;28;20229;-92
2021/12/23 03:12:23;;;;;;;29.35;15.90;;;-4.30;99.90;;;;;;5078210;28;20204;-92
2021/12/23 03:14:50;;;;;;;26.33;14.73;;;-4.30;99.90;;;;;;5079088;28;20626;-91
2021/12/23 03:17:17;;;;;;;30.05;16.20;;;-4.20;99.90;;;;;;5079394;28;20231;-92
2021/12/23 03:19:44;;;;;;;31.27;15.20;;;-4.20;99.90;;;;;;5079759;28;20264;-92
2021/12/23 03:22:11;;;;;;;27.83;15.60;;;-4.20;99.90;;;;;;5078950;28;20204;-92
2021/12/23 03:24:37;;;;;;;27.77;14.45;;;-4.20;99.90;;;;;;5078316;28;20224;-93
2021/12/23 03:27:05;;;;;;;25.33;15.43;;;-4.20;99.90;;;;;;5077760;28;20214;-92
2021/12/23 03:29:33;;;;;;;28.58;15.80;;;-4.20;99.90;;;;;;5077246;28;20243;-92
2021/12/23 03:32:01;;;;;;;26.75;14.50;;;-4.20;99.90;;;;;;5077612;28;20205;-94
2021/12/23 03:34:28;;;;;;;26.42;15.38;;;-4.20;99.90;;;;;;5078203;28;20200;-94
2021/12/23 03:36:54;;;;;;;25.52;15.60;;;-4.10;99.90;;;;;;5077613;28;20200;-93
2021/12/23 03:39:21;;;;;;;28.33;16.23;;;-4.10;99.90;;;;;;5077229;28;20246;-93
2021/12/23 03:41:49;;;;;;;31.13;15.75;;;-4.10;99.90;;;;;;5077309;28;20266;-92
2021/12/23 03:44:16;;;;;;;25.63;14.98;;;-4.10;99.90;;;;;;5077606;28;20367;-93
2021/12/23 03:46:44;;;;;;;26.38;14.43;;;-4.10;99.90;;;;;;5076221;28;20263;-92
2021/12/23 03:49:11;;;;;;;27.88;15.23;;;-4.10;99.90;;;;;;5076565;28;20279;-93
2021/12/23 03:51:38;;;;;;;24.50;14.88;;;-4.10;99.90;;;;;;5075350;28;20205;-93
2021/12/23 03:54:05;;;;;;;25.73;14.75;;;-4.10;99.90;;;;;;5075842;28;20204;-93
2021/12/23 03:56:32;;;;;;;30.75;15.15;;;-4.10;99.90;;;;;;5075593;28;20206;-92
2021/12/23 03:58:59;;;;;;;25.48;14.73;;;-4.10;99.90;;;;;;5075129;28;20238;-92
2021/12/23 04:01:29;;;;;;;23.70;13.57;;;-4.10;99.90;;;;;;5074823;28;20207;-92
2021/12/23 04:03:58;;;;;;;24.60;14.70;;;-4.10;99.90;;;;;;5074864;28;20216;-92
2021/12/23 04:06:26;;;;;;;30.63;14.73;;;-4.20;99.90;;;;;;5075110;28;20204;-93
2021/12/23 04:08:55;;;;;;;26.83;15.30;;;-4.20;99.90;;;;;;5074438;28;20228;-93
2021/12/23 04:11:22;;;;;;;31.13;15.48;;;-4.20;99.90;;;;;;5075159;28;20207;-91
2021/12/23 04:13:52;;;;;;;27.73;15.70;;;-4.30;99.90;;;;;;5074703;28;20223;-92
2021/12/23 04:16:19;;;;;;;25.00;14.60;;;-4.20;99.90;;;;;;5075553;28;20205;-92
2021/12/23 04:18:47;;;;;;;25.65;14.32;;;-4.20;99.90;;;;;;5074355;28;20681;-92
2021/12/23 04:21:15;;;;;;;28.70;14.82;;;-4.20;99.90;;;;;;5074823;28;20239;-92
2021/12/23 04:23:42;;;;;;;24.73;13.98;;;-4.20;99.90;;;;;;5075539;28;20220;-92
2021/12/23 04:26:09;;;;;;;23.33;15.23;;;-4.10;99.90;;;;;;5075727;28;20210;-91
2021/12/23 04:28:45;;;;;;;27.67;15.05;;;-4.10;99.90;;;;;;5075341;28;20231;-93
2021/12/23 04:31:13;;;;;;;24.52;13.43;;;-4.10;99.90;;;;;;5091128;28;20180;-95
2021/12/23 04:33:40;;;;;;;27.15;13.80;;;-4.10;99.90;;;;;;5097263;28;20206;-96
2021/12/23 04:36:09;;;;;;;30.25;13.20;;;-4.10;99.90;;;;;;5097450;28;20214;-93
2021/12/23 04:38:38;;;;;;;23.63;12.30;;;-4.10;99.90;;;;;;5097501;28;20268;-95
2021/12/23 04:41:05;;;;;;;26.13;13.77;;;-4.10;99.90;;;;;;5097358;28;20562;-94
2021/12/23 04:43:32;;;;;;;25.23;14.75;;;-4.10;99.90;;;;;;5109840;22;20210;-71
2021/12/23 04:45:59;;;;;;;28.30;14.52;;;-4.00;99.90;;;;;;5069802;28;20690;-74
2021/12/23 04:48:26;;;;;;;26.55;14.32;;;-4.00;99.90;;;;;;5069676;28;20199;-74
2021/12/23 04:50:52;;;;;;;27.80;13.70;;;-4.00;99.90;;;;;;5069582;28;20211;-73
2021/12/23 04:53:19;;;;;;;27.38;14.27;;;-4.00;99.90;;;;;;5070105;28;20228;-74
2021/12/23 04:55:47;;;;;;;26.92;14.35;;;-4.00;99.90;;;;;;5070162;28;20208;-73
2021/12/23 04:58:14;;;;;;;27.77;13.65;;;-4.00;99.90;;;;;;5069775;28;20205;-73
2021/12/23 05:00:42;;;;;;;29.45;13.32;;;-4.00;99.90;;;;;;5068380;28;20200;-74
2021/12/23 05:03:09;;;;;;;26.73;13.90;;;-4.00;99.90;;;;;;5072036;28;20208;-74
2021/12/23 05:05:36;;;;;;;30.92;14.48;;;-3.90;99.90;;;;;;5085508;28;20206;-73
2021/12/23 05:08:04;;;;;;;27.85;14.43;;;-3.80;99.90;;;;;;5087875;28;20271;-74
2021/12/23 05:10:30;;;;;;;26.77;14.88;;;-3.80;99.90;;;;;;5081626;28;20195;-74
2021/12/23 05:12:59;;;;;;;27.42;15.32;;;-3.70;99.90;;;;;;5079022;28;20668;-74
2021/12/23 05:15:26;;;;;;;25.75;12.77;;;-3.70;99.90;;;;;;5078081;28;20185;-73
2021/12/23 05:17:52;;;;;;;23.60;13.50;;;-3.70;99.90;;;;;;5077089;28;20193;-74
2021/12/23 05:20:20;;;;;;;30.75;15.98;;;-3.70;99.90;;;;;;5079597;28;20575;-73
2021/12/23 05:22:48;;;;;;;23.20;12.45;;;-3.70;99.90;;;;;;5086740;28;20223;-74
2021/12/23 05:25:15;;;;;;;28.63;14.60;;;-3.70;99.90;;;;;;5090009;28;20215;-74
2021/12/23 05:27:42;;;;;;;24.58;12.98;;;-3.70;99.90;;;;;;5084147;28;20193;-73
2021/12/23 05:30:12;;;;;;;28.80;14.70;;;-3.70;99.90;;;;;;5085375;22;20228;-72
2021/12/23 05:32:41;;;;;;;28.40;14.07;;;-3.70;99.90;;;;;;5069305;28;20224;-71
2021/12/23 05:35:09;;;;;;;30.60;15.07;;;-3.70;99.90;;;;;;5072626;28;20196;-71
2021/12/23 05:37:36;;;;;;;25.35;13.93;;;-3.80;99.90;;;;;;5072933;28;20678;-71
2021/12/23 05:40:03;;;;;;;26.90;13.95;;;-3.80;99.90;;;;;;5073085;28;20196;-71
2021/12/23 05:42:30;;;;;;;24.70;13.77;;;-3.80;99.90;;;;;;5071847;28;20581;-71
2021/12/23 05:44:56;;;;;;;24.95;14.23;;;-3.90;99.90;;;;;;5073577;28;20224;-71
2021/12/23 05:47:25;;;;;;;24.88;13.85;;;-3.90;99.90;;;;;;5072387;28;20207;-71
2021/12/23 05:49:51;;;;;;;24.60;14.20;;;-3.90;99.90;;;;;;5072617;28;20258;-71
2021/12/23 05:52:18;;;;;;;27.02;14.85;;;-3.90;99.90;;;;;;5072412;28;20675;-71
2021/12/23 05:54:45;;;;;;;28.00;14.90;;;-3.80;99.90;;;;;;5072319;28;20201;-71
2021/12/23 05:57:11;;;;;;;23.65;13.73;;;-3.90;99.90;;;;;;5072630;28;20303;-71
2021/12/23 05:59:38;;;;;;;24.73;14.10;;;-3.90;99.90;;;;;;5072585;28;20207;-71
2021/12/23 06:02:06;;;;;;;32.80;16.45;;;-3.90;99.90;;;;;;5072016;28;20208;-70
2021/12/23 06:04:35;;;;;;;23.50;12.85;;;-3.90;99.90;;;;;;5071929;28;20224;-71
2021/12/23 06:07:03;;;;;;;23.40;14.13;;;-4.00;99.90;;;;;;5072801;28;20204;-71
2021/12/23 06:09:30;;;;;;;29.48;16.63;;;-4.00;99.90;;;;;;5072379;28;20230;-71
2021/12/23 06:11:57;;;;;;;31.30;16.63;;;-4.00;99.90;;;;;;5071271;28;20201;-71
2021/12/23 06:14:24;;;;;;;27.30;14.48;;;-4.00;99.90;;;;;;5072699;28;20231;-71
2021/12/23 06:16:50;;;;;;;28.85;15.50;;;-4.00;99.90;;;;;;5072327;28;20218;-71
2021/12/23 06:19:17;;;;;;;31.95;15.90;;;-4.00;99.90;;;;;;5071921;28;20268;-71
2021/12/23 06:21:45;;;;;;;30.13;16.30;;;-4.00;99.90;;;;;;5071953;28;20571;-71
2021/12/23 06:24:12;;;;;;;26.02;14.40;;;-4.00;99.90;;;;;;5071834;28;20224;-71
2021/12/23 06:26:39;;;;;;;27.73;15.73;;;-3.90;99.90;;;;;;5071846;28;20211;-71
2021/12/23 06:29:05;;;;;;;25.50;14.40;;;-3.90;99.90;;;;;;5072455;28;20582;-71
2021/12/23 06:31:32;;;;;;;28.08;15.15;;;-4.00;99.90;;;;;;5071268;28;20212;-72
2021/12/23 06:33:59;;;;;;;30.02;14.75;;;-4.00;99.90;;;;;;5071755;28;20216;-72
2021/12/23 06:36:26;;;;;;;30.30;15.20;;;-4.00;99.90;;;;;;5071297;28;20205;-71
2021/12/23 06:38:54;;;;;;;25.08;14.48;;;-3.90;99.90;;;;;;5067439;28;20212;-71
2021/12/23 06:41:20;;;;;;;28.73;16.00;;;-3.90;99.90;;;;;;5069570;28;20207;-71
2021/12/23 06:43:47;;;;;;;24.13;15.20;;;-3.90;99.90;;;;;;5069452;28;20250;-72
2021/12/23 06:46:14;;;;;;;31.30;14.32;;;-3.90;99.90;;;;;;5070308;28;20205;-72
2021/12/23 06:48:41;;;;;;;30.48;15.57;;;-3.80;99.90;;;;;;5070695;28;20201;-72
2021/12/23 06:51:08;;;;;;;29.77;16.05;;;-3.80;99.90;;;;;;5071747;28;20216;-72
2021/12/23 06:53:34;;;;;;;24.17;14.30;;;-3.70;99.90;;;;;;5070970;28;20217;-72
2021/12/23 06:56:03;;;;;;;25.77;13.98;;;-3.60;99.90;;;;;;5071466;28;20201;-72
2021/12/23 06:58:31;;;;;;;34.50;16.02;;;-3.60;99.90;;;;;;5070082;28;20200;-71
2021/12/23 07:00:59;;;;;;;25.95;14.55;;;-3.60;99.90;;;;;;5071405;28;20251;-71
2021/12/23 07:03:34;;;;;;;25.38;14.98;;;-3.60;99.90;;;;;;5070486;28;20638;-71
2021/12/23 07:06:06;;;;;;;29.95;15.10;;;-3.60;99.90;;;;;;5071652;28;20725;-71
2021/12/23 07:08:35;;;;;;;24.85;13.80;;;-3.60;99.90;;;;;;5070752;28;20197;-71
2021/12/23 07:11:04;;;;;;;20.38;11.65;;;-3.60;99.90;;;;;;5070896;28;20207;-71
2021/12/23 07:13:32;;;;;;;24.55;13.57;;;-3.60;99.90;;;;;;5070357;28;20217;-72
2021/12/23 07:16:01;;;;;;;31.25;14.38;;;-3.60;99.90;;;;;;5071100;28;20208;-71
2021/12/23 07:18:27;;;;;;;28.35;14.07;;;-3.50;99.90;;;;;;5070404;28;20225;-71
2021/12/23 07:20:54;;;;;;;26.70;14.25;;;-3.50;99.90;;;;;;5070324;28;20204;-72
2021/12/23 07:23:21;;;;;;;27.10;14.55;;;-3.40;99.90;;;;;;5071018;28;20224;-71
2021/12/23 07:25:47;;;;;;;28.80;14.80;;;-3.40;99.90;;;;;;5070881;28;20228;-72
2021/12/23 07:28:16;;;;;;;27.80;15.00;;;-3.40;99.90;;;;;;5070688;28;20200;-71
2021/12/23 07:30:42;;;;;;;26.10;14.27;;;-3.40;99.90;;;;;;5070757;28;20221;-71
2021/12/23 07:33:09;;;;;;;28.55;14.07;;;-3.40;99.90;;;;;;5069585;28;20228;-71
2021/12/23 07:35:36;;;;;;;27.58;14.05;;;-3.30;99.90;;;;;;5070968;28;20203;-72
2021/12/23 07:38:03;;;;;;;32.60;15.68;;;-3.20;99.90;;;;;;5070607;28;20231;-71
2021/12/23 07:40:30;;;;;;;22.05;12.90;;;-3.20;99.90;;;;;;5070966;28;20200;-71
2021/12/23 07:43:08;;;;;;;21.30;13.35;;;-3.10;99.90;;;;;;5069818;28;20224;-71
2021/12/23 07:45:38;;;;;;;27.83;13.98;;;-3.10;99.90;;;;;;5070783;28;20220;-71
2021/12/23 07:48:05;;;;;;;22.63;13.73;;;-3.00;99.90;;;;;;5069971;28;20554;-72
2021/12/23 07:50:32;;;;;;;22.65;13.35;;;-3.00;99.90;;;;;;5070616;28;20208;-71
2021/12/23 07:52:59;;;;;;;25.55;13.77;;;-2.90;99.90;;;;;;5069828;28;20598;-71
2021/12/23 07:55:25;;;;;;;23.73;14.20;;;-2.80;99.90;;;;;;5071028;28;20204;-72
2021/12/23 07:57:52;;;;;;;25.25;14.15;;;-2.70;99.90;;;;;;5069088;28;20211;-71
2021/12/23 08:00:20;;;;;;;28.13;14.30;;;-2.60;99.90;;;;;;5069581;28;20201;-72
2021/12/23 08:02:48;;;;;;;23.02;15.13;;;-2.60;99.90;;;;;;5068404;28;20231;-72
2021/12/23 08:05:15;;;;;;;24.88;13.57;;;-2.50;99.90;;;;;;5070683;28;20220;-71
2021/12/23 08:07:41;;;;;;;29.95;14.65;;;-2.50;99.90;;;;;;5070260;28;20200;-71
2021/12/23 08:10:09;;;;;;;25.10;13.35;;;-2.40;99.90;;;;;;5069761;28;20219;-71
2021/12/23 08:12:36;;;;;;;25.42;14.50;;;-2.30;99.90;;;;;;5069244;28;20270;-72
2021/12/23 08:15:03;;;;;;;25.20;14.38;;;-2.30;99.90;;;;;;5070588;28;20204;-71
2021/12/23 08:17:30;;;;;;;23.73;13.88;;;-2.20;99.90;;;;;;5069843;28;20207;-72
2021/12/23 08:19:58;;;;;;;28.23;14.40;;;-2.10;99.90;;;;;;5070189;28;20679;-71
2021/12/23 08:22:24;;;;;;;20.38;12.63;;;-1.90;99.90;;;;;;5069997;28;20204;-72
2021/12/23 08:24:51;;;;;;;23.85;12.98;;;-1.40;99.90;;;;;;5060592;28;20226;-71
2021/12/23 08:27:20;;;;;;;21.63;12.68;;;-0.60;99.90;;;;;;5067780;28;20208;-72
2021/12/23 08:29:47;;;;;;;19.17;11.77;;;0.10;99.90;;;;;;5068736;28;20212;-72
2021/12/23 08:32:14;;;;;;;19.88;11.30;;;0.50;99.90;;;;;;5066500;28;20542;-72
2021/12/23 08:34:41;;;;;;;19.08;11.90;;;0.70;99.90;;;;;;5069282;28;20226;-72
2021/12/23 08:37:11;;;;;;;18.48;11.35;;;0.80;99.90;;;;;;5069465;28;20214;-73
2021/12/23 08:39:38;;;;;;;19.10;11.30;;;0.80;99.90;;;;;;5068145;28;20334;-72
2021/12/23 08:42:05;;;;;;;16.35;11.60;;;0.60;99.90;;;;;;5068397;28;20263;-72
2021/12/23 08:44:32;;;;;;;18.73;11.73;;;0.40;99.90;;;;;;5068378;28;20236;-71
2021/12/23 08:46:59;;;;;;;20.35;11.40;;;0.20;99.90;;;;;;5069037;28;20259;-71
2021/12/23 08:49:27;;;;;;;18.77;11.23;;;0.00;99.90;;;;;;5068776;28;20263;-72
2021/12/23 08:51:54;;;;;;;17.85;11.18;;;0.00;99.90;;;;;;5067919;28;20219;-72
2021/12/23 08:54:23;;;;;;;14.98;10.45;;;0.00;99.90;;;;;;5067912;28;20243;-72
2021/12/23 08:56:50;;;;;;;17.85;11.75;;;0.00;99.90;;;;;;5068454;28;20271;-72
2021/12/23 08:59:18;;;;;;;20.10;10.65;;;0.10;99.90;;;;;;5065237;28;20254;-74
2021/12/23 09:01:46;;;;;;;17.42;11.07;;;0.10;99.90;;;;;;5070559;28;20660;-72
2021/12/23 09:04:14;;;;;;;14.43;9.60;;;0.30;99.90;;;;;;5072476;28;20217;-73
2021/12/23 09:06:41;;;;;;;15.30;10.60;;;0.40;99.90;;;;;;5072602;28;20725;-71
2021/12/23 09:09:08;;;;;;;15.88;10.57;;;0.60;99.90;;;;;;5071595;28;20240;-72
2021/12/23 09:11:36;;;;;;;15.13;10.30;;;0.80;99.90;;;;;;5072312;28;20204;-72
2021/12/23 09:14:03;;;;;;;16.45;9.25;;;1.00;99.90;;;;;;5072600;28;20220;-72
2021/12/23 09:16:30;;;;;;;14.82;10.30;;;1.20;99.90;;;;;;5073189;28;20196;-73
2021/12/23 09:18:57;;;;;;;17.15;10.68;;;1.20;99.90;;;;;;5072222;28;20215;-72
2021/12/23 09:21:24;;;;;;;17.92;10.48;;;1.30;99.90;;;;;;5072415;28;20201;-72
2021/12/23 09:23:51;;;;;;;14.40;8.95;;;1.20;99.90;;;;;;5071999;28;20220;-72
2021/12/23 09:26:18;;;;;;;16.63;9.52;;;1.20;99.90;;;;;;5072899;28;20603;-72
2021/12/23 09:28:57;;;;;;;16.35;9.30;;;1.20;99.90;;;;;;5071718;28;20212;-72
2021/12/23 09:34:09;;;;;;;15.57;9.98;;;1.10;99.90;;;;;;5072138;28;20223;-72
2021/12/23 09:36:37;;;;;;;12.80;9.13;;;1.20;99.90;;;;;;5072983;28;20318;-72
2021/12/23 09:39:07;;;;;;;16.30;9.95;;;1.20;99.90;;;;;;5072221;28;20574;-72
2021/12/23 09:41:34;;;;;;;13.10;9.25;;;1.20;99.90;;;;;;5071762;28;20208;-72
2021/12/23 09:44:05;;;;;;;18.13;9.85;;;1.30;99.90;;;;;;5072837;28;20228;-72
2021/12/23 09:46:34;;;;;;;15.68;9.23;;;1.30;99.90;;;;;;5072028;28;20277;-72
2021/12/23 09:49:02;;;;;;;14.10;8.95;;;1.40;99.90;;;;;;5071693;28;20205;-72
2021/12/23 09:51:30;;;;;;;12.45;8.93;;;1.40;99.90;;;;;;5072122;28;20578;-73
2021/12/23 09:53:59;;;;;;;15.73;9.07;;;1.50;99.90;;;;;;5071655;28;20737;-72
2021/12/23 09:56:27;;;;;;;11.65;7.88;;;1.50;99.90;;;;;;5072709;28;20546;-73
2021/12/23 09:58:56;;;;;;;11.93;9.00;;;1.60;99.90;;;;;;5071315;28;20595;-72
2021/12/23 10:01:25;;;;;;;13.80;9.70;;;1.70;99.90;;;;;;5071962;28;20258;-73
2021/12/23 10:03:52;;;;;;;11.88;8.35;;;1.70;99.90;;;;;;5071191;28;20229;-73
2021/12/23 10:06:19;;;;;;;16.95;9.27;;;1.80;99.90;;;;;;5077111;28;20223;-73
2021/12/23 10:08:46;;;;;;;14.13;8.43;;;1.90;99.90;;;;;;5091946;28;20741;-72
2021/12/23 10:11:16;;;;;;;14.35;9.13;;;2.10;99.90;;;;;;5090327;28;20204;-72
2021/12/23 10:30:35;;;;;;;9.35;6.15;;;3.20;99.90;;;;;;5090139;28;20681;-73
2021/12/23 10:33:27;;;;;;;9.57;7.20;;;3.30;99.90;;;;;;5090775;28;20729;-73
2021/12/23 10:38:44;;;;;;;9.13;6.50;;;3.40;99.90;;;;;;5091458;28;20199;-72
2021/12/23 10:41:14;;;;;;;8.55;5.82;;;3.40;99.90;;;;;;5091410;28;20195;-72
2021/12/23 10:43:43;;;;;;;8.75;6.30;;;3.50;99.90;;;;;;5090925;28;20223;-72
2021/12/23 10:46:14;;;;;;;7.85;5.32;;;3.50;99.90;;;;;;5092062;28;20215;-72
2021/12/23 10:48:51;;;;;;;12.43;6.78;;;3.60;99.90;;;;;;5090463;28;20207;-72
2021/12/23 10:51:19;;;;;;;6.68;5.72;;;3.70;99.90;;;;;;5091681;28;20574;-72
2021/12/23 10:53:58;;;;;;;8.30;5.80;;;3.80;99.90;;;;;;5090424;28;20806;-72
2021/12/23 10:59:17;;;;;;;8.82;5.85;;;4.10;99.90;;;;;;5091591;28;20207;-72
2021/12/23 11:02:08;;;;;;;7.25;6.05;;;4.10;99.90;;;;;;5090440;28;20203;-72
2021/12/23 11:04:58;;;;;;;9.15;6.07;;;4.20;99.90;;;;;;5090725;28;20225;-72
2021/12/23 11:07:38;;;;;;;9.30;5.38;;;4.20;99.90;;;;;;5091279;28;20203;-72
2021/12/23 11:10:17;;;;;;;14.63;7.35;;;4.30;99.90;;;;;;5091087;28;20208;-72
2021/12/23 11:36:05;;;;;;;6.93;5.55;;;4.60;99.90;;;;;;5090759;28;20242;-72
2021/12/23 11:38:40;;;;;;;8.27;5.00;;;4.70;99.90;;;;;;5090286;28;20337;-72
2021/12/23 11:41:20;;;;;;;7.30;5.28;;;4.70;99.90;;;;;;5090542;28;20231;-72
2021/12/23 11:43:52;;;;;;;7.15;5.20;;;4.80;99.90;;;;;;5090207;28;20219;-72
2021/12/23 11:46:22;;;;;;;7.63;5.25;;;4.90;99.90;;;;;;5090220;28;20223;-72
2021/12/23 11:48:52;;;;;;;6.03;4.68;;;5.00;99.90;;;;;;5089648;28;20230;-72
2021/12/23 11:51:26;;;;;;;6.22;4.75;;;5.00;99.90;;;;;;5089467;28;20802;-72
2021/12/23 11:53:54;;;;;;;5.53;4.75;;;5.10;99.90;;;;;;5079879;28;20307;-72
2021/12/23 11:56:22;;;;;;;6.32;3.95;;;5.20;99.90;;;;;;5069924;28;20207;-72
2021/12/23 11:58:49;;;;;;;6.07;4.78;;;5.30;99.90;;;;;;5093934;22;20272;-87
2021/12/23 12:01:19;;;;;;;8.20;5.40;;;5.30;99.90;;;;;;5050781;28;20201;-88
2021/12/23 12:03:56;;;;;;;5.70;4.55;;;5.40;99.90;;;;;;5051311;28;20292;-90
2021/12/23 12:06:25;;;;;;;7.20;4.38;;;5.40;99.90;;;;;;5061355;28;20224;-89
2021/12/23 12:09:12;;;;;;;9.45;5.80;;;5.40;99.90;;;;;;5059721;28;20201;-88
2021/12/23 12:11:39;;;;;;;5.55;4.10;;;5.50;99.90;;;;;;5104902;22;20234;-70
2021/12/23 12:14:41;;;;;;;9.13;4.90;;;5.60;99.90;;;;;;5095204;28;20265;-70
2021/12/23 12:17:40;;;;;;;6.00;4.18;;;5.70;99.90;;;;;;5090297;28;20196;-71
2021/12/23 12:20:22;;;;;;;6.38;4.32;;;5.80;99.90;;;;;;5090425;28;20218;-70
2021/12/23 12:22:58;;;;;;;4.97;4.20;;;5.90;99.90;;;;;;5089742;28;20725;-69
2021/12/23 12:26:08;;;;;;;4.60;3.90;;;6.00;99.90;;;;;;5090722;28;20237;-70
2021/12/23 12:28:39;;;;;;;6.97;4.65;;;6.00;99.90;;;;;;5066478;28;20229;-70
2021/12/23 12:31:09;;;;;;;6.95;4.50;;;6.10;99.90;;;;;;5090078;28;20203;-70
2021/12/23 12:33:42;;;;;;;6.50;4.00;;;6.10;99.90;;;;;;5089328;28;20219;-71
2021/12/23 12:36:12;;;;;;;5.35;3.88;;;6.20;99.90;;;;;;5090068;28;20666;-70
2021/12/23 12:38:41;;;;;;;4.90;3.75;;;6.20;99.90;;;;;;5090082;28;20227;-70
2021/12/23 12:41:10;;;;;;;6.13;4.10;;;6.30;99.90;;;;;;5089838;28;20634;-70
2021/12/23 12:43:53;;;;;;;5.47;4.15;;;6.30;99.90;;;;;;5083281;28;20219;-70
2021/12/23 12:46:47;;;;;;;6.60;4.15;;;6.30;99.90;;;;;;5089812;28;20322;-71
2021/12/23 12:49:22;;;;;;;5.15;3.80;;;6.30;99.90;;;;;;5089407;28;20298;-70
2021/12/23 12:51:53;;;;;;;4.35;3.40;;;6.20;99.90;;;;;;5089991;28;20204;-70
2021/12/23 12:54:31;;;;;;;5.47;4.25;;;6.20;99.90;;;;;;5087540;28;20227;-71
2021/12/23 12:57:00;;;;;;;5.45;3.55;;;6.10;99.90;;;;;;5088385;28;20663;-70
2021/12/23 12:59:30;;;;;;;6.40;4.13;;;6.10;99.90;;;;;;5089443;28;20294;-70
2021/12/23 13:01:59;;;;;;;5.45;3.75;;;6.10;99.90;;;;;;5088746;28;20211;-71
2021/12/23 13:04:27;;;;;;;8.18;4.32;;;6.20;99.90;;;;;;5088656;28;20223;-70
2021/12/23 13:06:55;;;;;;;4.95;4.10;;;6.10;99.90;;;;;;5089102;28;20231;-71
2021/12/23 13:09:24;;;;;;;5.85;4.55;;;6.20;99.90;;;;;;5088750;28;20329;-71
2021/12/23 13:11:51;;;;;;;4.90;4.00;;;6.10;99.90;;;;;;5085466;28;20591;-72
2021/12/23 13:14:23;;;;;;;6.07;4.30;;;6.00;99.90;;;;;;5089157;28;20216;-71
2021/12/23 13:16:56;;;;;;;6.97;4.70;;;6.10;99.90;;;;;;5089774;28;20211;-72
2021/12/23 13:19:29;;;;;;;4.75;3.83;;;6.10;99.90;;;;;;5088422;28;20224;-72
2021/12/23 13:21:57;;;;;;;6.88;4.50;;;6.10;99.90;;;;;;5088789;28;20301;-72
2021/12/23 13:24:26;;;;;;;8.93;5.50;;;6.10;99.90;;;;;;5087250;28;20808;-73
2021/12/23 13:26:54;;;;;;;8.35;4.95;;;6.20;99.90;;;;;;5089081;28;20223;-72
2021/12/23 13:29:26;;;;;;;7.90;4.63;;;6.10;99.90;;;;;;5088536;28;20200;-72
2021/12/23 13:31:55;;;;;;;5.90;5.20;;;6.10;99.90;;;;;;5090007;28;20298;-73
2021/12/23 13:34:24;;;;;;;7.30;4.90;;;6.00;99.90;;;;;;5087111;28;20621;-73
2021/12/23 13:36:53;;;;;;;7.05;4.78;;;6.00;99.90;;;;;;5089412;28;20199;-73